sensor_id;sensor_type;location;lat;lon;timestamp;pressure;altitude;pressure_sealevel;temperature;humidity
56719;BME280;42597;40.636;0.278;2023-05-11T00:01:53;97377.50;;;18.58;35.18
56719;BME280;42597;40.636;0.278;2023-05-11T00:04:19;97389.91;;;19.27;36.26
56719;BME280;42597;40.636;0.278;2023-05-11T00:06:44;97404.88;;;18.54;35.27
56719;BME280;42597;40.636;0.278;2023-05-11T00:09:10;97400.13;;;19.08;36.18
56719;BME280;42597;40.636;0.278;2023-05-11T00:11:36;97389.16;;;19.19;35.36
56719;BME280;42597;40.636;0.278;2023-05-11T00:14:02;97390.97;;;19.54;36.21
56719;BME280;42597;40.636;0.278;2023-05-11T00:16:28;97356.78;;;19.77;38.14
56719;BME280;42597;40.636;0.278;2023-05-11T00:18:54;97374.59;;;19.36;37.97
56719;BME280;42597;40.636;0.278;2023-05-11T00:21:19;97388.94;;;19.69;38.67
56719;BME280;42597;40.636;0.278;2023-05-11T00:23:47;97377.25;;;19.61;37.70
56719;BME280;42597;40.636;0.278;2023-05-11T00:26:13;97384.94;;;18.43;38.07
56719;BME280;42597;40.636;0.278;2023-05-11T00:28:38;97386.75;;;19.32;37.12
56719;BME280;42597;40.636;0.278;2023-05-11T00:31:04;97386.84;;;18.92;35.13
56719;BME280;42597;40.636;0.278;2023-05-11T00:33:30;97402.13;;;18.22;36.31
56719;BME280;42597;40.636;0.278;2023-05-11T00:35:55;97381.38;;;18.89;36.51
56719;BME280;42597;40.636;0.278;2023-05-11T00:38:21;97383.47;;;19.69;37.31
56719;BME280;42597;40.636;0.278;2023-05-11T00:40:47;97397.06;;;18.35;36.77
56719;BME280;42597;40.636;0.278;2023-05-11T00:43:13;97382.97;;;18.65;38.53
56719;BME280;42597;40.636;0.278;2023-05-11T00:45:39;97391.56;;;18.95;37.96
56719;BME280;42597;40.636;0.278;2023-05-11T00:48:05;97405.63;;;18.08;37.70
56719;BME280;42597;40.636;0.278;2023-05-11T00:50:30;97395.41;;;19.19;38.59
56719;BME280;42597;40.636;0.278;2023-05-11T00:52:56;97386.09;;;18.67;37.43
56719;BME280;42597;40.636;0.278;2023-05-11T00:55:23;97398.59;;;18.29;36.06
56719;BME280;42597;40.636;0.278;2023-05-11T00:57:49;97388.06;;;18.09;37.88
56719;BME280;42597;40.636;0.278;2023-05-11T01:00:15;97391.56;;;18.85;38.31
56719;BME280;42597;40.636;0.278;2023-05-11T01:02:40;97387.66;;;18.32;36.13
56719;BME280;42597;40.636;0.278;2023-05-11T01:05:06;97399.38;;;18.68;37.50
56719;BME280;42597;40.636;0.278;2023-05-11T01:10:28;97382.91;;;19.04;36.82
56719;BME280;42597;40.636;0.278;2023-05-11T01:15:50;97386.91;;;18.39;37.89
56719;BME280;42597;40.636;0.278;2023-05-11T01:20:45;97399.06;;;19.83;39.02
56719;BME280;42597;40.636;0.278;2023-05-11T01:31:11;97388.47;;;18.47;38.77
56719;BME280;42597;40.636;0.278;2023-05-11T01:33:53;97384.47;;;19.05;36.24
56719;BME280;42597;40.636;0.278;2023-05-11T01:36:24;97409.91;;;19.09;35.78
56719;BME280;42597;40.636;0.278;2023-05-11T01:38:53;97396.44;;;19.61;39.58
56719;BME280;42597;40.636;0.278;2023-05-11T01:41:21;97394.69;;;18.01;35.26
56719;BME280;42597;40.636;0.278;2023-05-11T01:43:57;97383.78;;;18.30;37.45
56719;BME280;42597;40.636;0.278;2023-05-11T01:46:25;97381.38;;;17.89;39.23
56719;BME280;42597;40.636;0.278;2023-05-11T01:48:55;97390.72;;;19.09;37.54
56719;BME280;42597;40.636;0.278;2023-05-11T01:51:36;97364.59;;;18.76;39.81
56719;BME280;42597;40.636;0.278;2023-05-11T01:54:06;97379.00;;;17.76;41.26
56719;BME280;42597;40.636;0.278;2023-05-11T01:56:34;97363.44;;;18.31;38.61
56719;BME280;42597;40.636;0.278;2023-05-11T01:59:01;97361.88;;;18.55;36.55
56719;BME280;42597;40.636;0.278;2023-05-11T02:01:28;97380.63;;;18.24;41.08
56719;BME280;42597;40.636;0.278;2023-05-11T02:03:55;97367.09;;;17.22;38.40
56719;BME280;42597;40.636;0.278;2023-05-11T02:06:23;97343.09;;;18.64;41.12
56719;BME280;42597;40.636;0.278;2023-05-11T02:08:50;97361.78;;;19.05;39.67
56719;BME280;42597;40.636;0.278;2023-05-11T02:11:18;97356.41;;;17.97;37.46
56719;BME280;42597;40.636;0.278;2023-05-11T02:13:48;97351.72;;;18.19;38.49
56719;BME280;42597;40.636;0.278;2023-05-11T02:16:15;97378.28;;;18.90;37.30
56719;BME280;42597;40.636;0.278;2023-05-11T02:18:43;97365.38;;;18.12;37.70
56719;BME280;42597;40.636;0.278;2023-05-11T02:21:10;97334.47;;;17.65;35.69
56719;BME280;42597;40.636;0.278;2023-05-11T02:23:37;97357.91;;;17.73;39.54
56719;BME280;42597;40.636;0.278;2023-05-11T02:26:05;97349.34;;;18.82;38.68
56719;BME280;42597;40.636;0.278;2023-05-11T02:28:31;97350.91;;;18.65;38.61
56719;BME280;42597;40.636;0.278;2023-05-11T02:31:00;97354.06;;;18.24;38.78
56719;BME280;42597;40.636;0.278;2023-05-11T02:33:34;97362.53;;;19.19;38.10
56719;BME280;42597;40.636;0.278;2023-05-11T02:36:02;97353.28;;;17.95;39.02
56719;BME280;42597;40.636;0.278;2023-05-11T02:38:32;97334.47;;;18.80;39.08
56719;BME280;42597;40.636;0.278;2023-05-11T02:41:01;97363.44;;;18.45;36.58
56719;BME280;42597;40.636;0.278;2023-05-11T02:43:31;97337.25;;;18.12;38.59
56719;BME280;42597;40.636;0.278;2023-05-11T02:46:02;97347.69;;;17.49;39.83
56719;BME280;42597;40.636;0.278;2023-05-11T02:48:37;97303.06;;;19.16;37.11
56719;BME280;42597;40.636;0.278;2023-05-11T02:51:06;97310.19;;;18.96;38.01
56719;BME280;42597;40.636;0.278;2023-05-11T02:53:33;97309.53;;;18.24;36.26
56719;BME280;42597;40.636;0.278;2023-05-11T02:56:02;97336.91;;;18.13;38.66
56719;BME280;42597;40.636;0.278;2023-05-11T02:58:28;97324.38;;;18.09;36.73
56719;BME280;42597;40.636;0.278;2023-05-11T03:00:54;97291.03;;;18.89;36.79
56719;BME280;42597;40.636;0.278;2023-05-11T03:03:20;97292.84;;;19.24;38.65
56719;BME280;42597;40.636;0.278;2023-05-11T03:05:46;97286.75;;;18.81;37.76
56719;BME280;42597;40.636;0.278;2023-05-11T03:08:12;97313.38;;;18.62;37.43
56719;BME280;42597;40.636;0.278;2023-05-11T03:10:38;97307.97;;;17.91;36.45
56719;BME280;42597;40.636;0.278;2023-05-11T03:13:04;97293.88;;;18.24;37.01
56719;BME280;42597;40.636;0.278;2023-05-11T03:15:31;97289.84;;;18.97;38.63
56719;BME280;42597;40.636;0.278;2023-05-11T03:17:58;97284.66;;;19.17;37.72
56719;BME280;42597;40.636;0.278;2023-05-11T03:20:25;97270.75;;;18.76;36.88
56719;BME280;42597;40.636;0.278;2023-05-11T03:22:51;97282.94;;;17.67;36.04
56719;BME280;42597;40.636;0.278;2023-05-11T03:25:17;97269.56;;;18.77;39.81
56719;BME280;42597;40.636;0.278;2023-05-11T03:27:44;97269.56;;;18.84;39.91
56719;BME280;42597;40.636;0.278;2023-05-11T03:30:13;97282.81;;;18.96;40.82
56719;BME280;42597;40.636;0.278;2023-05-11T03:32:38;97259.38;;;18.81;39.51
56719;BME280;42597;40.636;0.278;2023-05-11T03:35:04;97261.03;;;18.46;35.66
56719;BME280;42597;40.636;0.278;2023-05-11T03:37:30;97268.94;;;18.01;39.57
56719;BME280;42597;40.636;0.278;2023-05-11T03:39:58;97280.63;;;17.98;40.82
56719;BME280;42597;40.636;0.278;2023-05-11T03:42:26;97246.25;;;18.25;38.04
56719;BME280;42597;40.636;0.278;2023-05-11T03:44:54;97254.19;;;19.08;39.52
56719;BME280;42597;40.636;0.278;2023-05-11T03:47:25;97243.50;;;19.31;40.19
56719;BME280;42597;40.636;0.278;2023-05-11T03:49:52;97252.19;;;19.19;39.90
56719;BME280;42597;40.636;0.278;2023-05-11T03:52:19;97254.81;;;18.42;38.72
56719;BME280;42597;40.636;0.278;2023-05-11T03:54:45;97239.09;;;18.67;37.41
56719;BME280;42597;40.636;0.278;2023-05-11T03:57:13;97256.44;;;17.86;37.08
56719;BME280;42597;40.636;0.278;2023-05-11T03:59:38;97261.09;;;17.78;40.08
56719;BME280;42597;40.636;0.278;2023-05-11T04:02:04;97238.75;;;18.47;39.15
56719;BME280;42597;40.636;0.278;2023-05-11T04:04:30;97241.47;;;18.51;39.75
56719;BME280;42597;40.636;0.278;2023-05-11T04:06:57;97243.47;;;18.40;37.35
56719;BME280;42597;40.636;0.278;2023-05-11T04:09:23;97235.25;;;18.43;38.87
56719;BME280;42597;40.636;0.278;2023-05-11T04:11:49;97242.78;;;19.20;38.40
56719;BME280;42597;40.636;0.278;2023-05-11T04:14:15;97220.03;;;19.34;40.26
56719;BME280;42597;40.636;0.278;2023-05-11T04:16:42;97236.75;;;18.69;38.39
56719;BME280;42597;40.636;0.278;2023-05-11T04:19:08;97214.53;;;19.34;40.60
56719;BME280;42597;40.636;0.278;2023-05-11T04:21:33;97238.84;;;17.83;38.25
56719;BME280;42597;40.636;0.278;2023-05-11T04:24:00;97245.06;;;18.30;39.15
56719;BME280;42597;40.636;0.278;2023-05-11T04:26:26;97243.09;;;18.31;37.77
56719;BME280;42597;40.636;0.278;2023-05-11T04:28:51;97240.72;;;18.33;40.40
56719;BME280;42597;40.636;0.278;2023-05-11T04:31:17;97235.31;;;18.08;38.69
56719;BME280;42597;40.636;0.278;2023-05-11T04:33:42;97236.84;;;18.19;40.71
56719;BME280;42597;40.636;0.278;2023-05-11T04:36:08;97243.03;;;18.52;39.82
56719;BME280;42597;40.636;0.278;2023-05-11T04:38:34;97211.03;;;18.35;37.62
56719;BME280;42597;40.636;0.278;2023-05-11T04:41:06;97221.88;;;18.67;41.23
56719;BME280;42597;40.636;0.278;2023-05-11T04:43:33;97207.81;;;18.72;41.12
56719;BME280;42597;40.636;0.278;2023-05-11T04:45:59;97238.44;;;17.92;38.50
56719;BME280;42597;40.636;0.278;2023-05-11T04:48:25;97215.78;;;18.09;42.29
56719;BME280;42597;40.636;0.278;2023-05-11T04:50:54;97224.38;;;18.25;38.70
56719;BME280;42597;40.636;0.278;2023-05-11T04:53:20;97220.84;;;17.39;37.37
56719;BME280;42597;40.636;0.278;2023-05-11T04:55:45;97234.41;;;18.71;39.41
56719;BME280;42597;40.636;0.278;2023-05-11T04:58:11;97237.69;;;17.95;39.51
56719;BME280;42597;40.636;0.278;2023-05-11T05:00:37;97227.47;;;18.28;37.73
56719;BME280;42597;40.636;0.278;2023-05-11T05:03:02;97218.06;;;18.39;41.41
56719;BME280;42597;40.636;0.278;2023-05-11T05:05:28;97224.38;;;17.68;40.22
56719;BME280;42597;40.636;0.278;2023-05-11T05:07:53;97230.66;;;18.01;36.55
56719;BME280;42597;40.636;0.278;2023-05-11T05:10:19;97218.06;;;18.39;36.95
56719;BME280;42597;40.636;0.278;2023-05-11T05:12:46;97232.75;;;18.92;38.81
56719;BME280;42597;40.636;0.278;2023-05-11T05:15:12;97207.81;;;18.61;38.96
56719;BME280;42597;40.636;0.278;2023-05-11T05:17:38;97222.66;;;18.74;41.65
56719;BME280;42597;40.636;0.278;2023-05-11T05:20:04;97238.44;;;17.63;38.70
56719;BME280;42597;40.636;0.278;2023-05-11T05:22:30;97199.16;;;18.81;40.61
56719;BME280;42597;40.636;0.278;2023-05-11T05:24:56;97221.47;;;18.68;40.98
56719;BME280;42597;40.636;0.278;2023-05-11T05:27:22;97217.78;;;19.14;39.53
56719;BME280;42597;40.636;0.278;2023-05-11T05:29:47;97202.31;;;18.83;40.02
56719;BME280;42597;40.636;0.278;2023-05-11T05:32:13;97215.25;;;18.71;41.61
56719;BME280;42597;40.636;0.278;2023-05-11T05:34:39;97223.22;;;17.91;41.49
56719;BME280;42597;40.636;0.278;2023-05-11T05:37:04;97222.03;;;18.06;40.80
56719;BME280;42597;40.636;0.278;2023-05-11T05:39:30;97211.81;;;19.30;40.56
56719;BME280;42597;40.636;0.278;2023-05-11T05:41:56;97229.69;;;18.68;37.89
56719;BME280;42597;40.636;0.278;2023-05-11T05:44:22;97224.72;;;18.42;41.19
56719;BME280;42597;40.636;0.278;2023-05-11T05:46:48;97223.63;;;17.86;39.94
56719;BME280;42597;40.636;0.278;2023-05-11T05:49:13;97214.13;;;18.51;38.24
56719;BME280;42597;40.636;0.278;2023-05-11T05:51:39;97211.63;;;19.55;40.46
56719;BME280;42597;40.636;0.278;2023-05-11T05:54:05;97238.06;;;17.90;38.23
56719;BME280;42597;40.636;0.278;2023-05-11T05:56:31;97229.81;;;17.25;41.12
56719;BME280;42597;40.636;0.278;2023-05-11T05:58:59;97235.69;;;18.28;40.22
56719;BME280;42597;40.636;0.278;2023-05-11T06:01:25;97226.75;;;18.02;37.63
56719;BME280;42597;40.636;0.278;2023-05-11T06:03:51;97232.91;;;18.45;39.18
56719;BME280;42597;40.636;0.278;2023-05-11T06:06:17;97214.19;;;18.22;42.22
56719;BME280;42597;40.636;0.278;2023-05-11T06:08:42;97221.22;;;18.20;39.41
56719;BME280;42597;40.636;0.278;2023-05-11T06:11:08;97187.94;;;18.54;40.37
56719;BME280;42597;40.636;0.278;2023-05-11T06:13:33;97251.66;;;18.47;38.59
56719;BME280;42597;40.636;0.278;2023-05-11T06:15:59;97176.47;;;18.84;40.00
56719;BME280;42597;40.636;0.278;2023-05-11T06:18:26;97201.88;;;18.88;39.51
56719;BME280;42597;40.636;0.278;2023-05-11T06:20:51;97207.88;;;18.47;39.39
56719;BME280;42597;40.636;0.278;2023-05-11T06:23:17;97170.78;;;19.19;39.79
56719;BME280;42597;40.636;0.278;2023-05-11T06:25:43;97229.84;;;18.08;40.84
56719;BME280;42597;40.636;0.278;2023-05-11T06:28:08;97230.97;;;17.39;40.01
56719;BME280;42597;40.636;0.278;2023-05-11T06:30:34;97217.31;;;18.24;39.18
56719;BME280;42597;40.636;0.278;2023-05-11T06:32:59;97202.91;;;19.15;40.94
56719;BME280;42597;40.636;0.278;2023-05-11T06:35:25;97210.97;;;18.49;40.59
56719;BME280;42597;40.636;0.278;2023-05-11T06:37:51;97219.34;;;19.15;39.78
56719;BME280;42597;40.636;0.278;2023-05-11T06:40:16;97206.09;;;19.03;38.70
56719;BME280;42597;40.636;0.278;2023-05-11T06:42:42;97217.75;;;19.18;39.88
56719;BME280;42597;40.636;0.278;2023-05-11T06:45:08;97197.28;;;19.33;37.02
56719;BME280;42597;40.636;0.278;2023-05-11T06:47:34;97200.66;;;18.99;39.60
56719;BME280;42597;40.636;0.278;2023-05-11T06:49:59;97200.41;;;19.39;39.83
56719;BME280;42597;40.636;0.278;2023-05-11T06:52:25;97217.09;;;18.96;38.83
56719;BME280;42597;40.636;0.278;2023-05-11T06:54:51;97211.91;;;19.12;40.79
56719;BME280;42597;40.636;0.278;2023-05-11T06:57:17;97223.59;;;17.96;37.69
56719;BME280;42597;40.636;0.278;2023-05-11T06:59:42;97216.41;;;18.63;39.42
56719;BME280;42597;40.636;0.278;2023-05-11T07:02:08;97231.31;;;18.52;38.40
56719;BME280;42597;40.636;0.278;2023-05-11T07:04:34;97221.09;;;18.66;38.81
56719;BME280;42597;40.636;0.278;2023-05-11T07:07:00;97229.47;;;19.22;40.69
56719;BME280;42597;40.636;0.278;2023-05-11T07:09:25;97233.84;;;19.71;38.57
56719;BME280;42597;40.636;0.278;2023-05-11T07:11:51;97250.81;;;18.79;39.21
56719;BME280;42597;40.636;0.278;2023-05-11T07:14:17;97230.25;;;19.22;38.68
56719;BME280;42597;40.636;0.278;2023-05-11T07:16:43;97242.53;;;18.89;39.22
56719;BME280;42597;40.636;0.278;2023-05-11T07:19:08;97263.19;;;19.05;38.25
56719;BME280;42597;40.636;0.278;2023-05-11T07:21:35;97255.84;;;19.64;39.23
56719;BME280;42597;40.636;0.278;2023-05-11T07:24:01;97266.53;;;18.42;37.25
56719;BME280;42597;40.636;0.278;2023-05-11T07:26:27;97246.03;;;18.93;39.42
56719;BME280;42597;40.636;0.278;2023-05-11T07:28:53;97250.59;;;19.21;36.76
56719;BME280;42597;40.636;0.278;2023-05-11T07:31:18;97251.09;;;19.06;36.15
56719;BME280;42597;40.636;0.278;2023-05-11T07:33:44;97256.16;;;19.07;39.82
56719;BME280;42597;40.636;0.278;2023-05-11T07:36:10;97246.28;;;19.20;36.42
56719;BME280;42597;40.636;0.278;2023-05-11T07:38:36;97216.63;;;19.08;39.65
56719;BME280;42597;40.636;0.278;2023-05-11T07:41:02;97229.63;;;19.63;39.54
56719;BME280;42597;40.636;0.278;2023-05-11T07:43:28;97218.41;;;19.40;40.08
56719;BME280;42597;40.636;0.278;2023-05-11T07:45:54;97264.88;;;18.81;37.98
56719;BME280;42597;40.636;0.278;2023-05-11T07:48:20;97201.22;;;19.32;38.95
56719;BME280;42597;40.636;0.278;2023-05-11T07:50:46;97240.38;;;19.26;37.31
56719;BME280;42597;40.636;0.278;2023-05-11T07:53:11;97211.59;;;18.99;37.80
56719;BME280;42597;40.636;0.278;2023-05-11T07:55:37;97232.94;;;18.35;39.11
56719;BME280;42597;40.636;0.278;2023-05-11T07:58:02;97217.16;;;18.82;40.42
56719;BME280;42597;40.636;0.278;2023-05-11T08:00:28;97219.34;;;19.15;37.35
56719;BME280;42597;40.636;0.278;2023-05-11T08:02:54;97203.03;;;18.90;39.27
56719;BME280;42597;40.636;0.278;2023-05-11T08:05:19;97192.31;;;19.17;39.04
56719;BME280;42597;40.636;0.278;2023-05-11T08:07:45;97204.34;;;19.38;37.63
56719;BME280;42597;40.636;0.278;2023-05-11T08:10:11;97209.63;;;19.04;39.80
56719;BME280;42597;40.636;0.278;2023-05-11T08:12:37;97181.28;;;19.84;38.40
56719;BME280;42597;40.636;0.278;2023-05-11T08:15:03;97214.84;;;18.73;37.23
56719;BME280;42597;40.636;0.278;2023-05-11T08:17:30;97196.91;;;19.35;38.79
56719;BME280;42597;40.636;0.278;2023-05-11T08:19:56;97189.41;;;19.46;38.51
56719;BME280;42597;40.636;0.278;2023-05-11T08:22:21;97187.38;;;18.98;38.57
56719;BME280;42597;40.636;0.278;2023-05-11T08:24:48;97190.59;;;18.75;35.87
56719;BME280;42597;40.636;0.278;2023-05-11T08:27:15;97181.19;;;18.80;36.52
56719;BME280;42597;40.636;0.278;2023-05-11T08:29:40;97181.88;;;19.02;36.61
56719;BME280;42597;40.636;0.278;2023-05-11T08:32:06;97181.00;;;19.15;38.87
56719;BME280;42597;40.636;0.278;2023-05-11T08:34:31;97179.25;;;18.77;35.01
56719;BME280;42597;40.636;0.278;2023-05-11T08:36:57;97174.91;;;18.86;34.86
56719;BME280;42597;40.636;0.278;2023-05-11T08:39:26;97173.84;;;19.29;37.30
56719;BME280;42597;40.636;0.278;2023-05-11T08:41:52;97159.91;;;19.05;37.15
56719;BME280;42597;40.636;0.278;2023-05-11T08:44:19;97183.06;;;18.93;36.49
56719;BME280;42597;40.636;0.278;2023-05-11T08:46:47;97182.34;;;19.45;35.58
56719;BME280;42597;40.636;0.278;2023-05-11T08:49:13;97168.25;;;19.46;38.34
56719;BME280;42597;40.636;0.278;2023-05-11T08:51:39;97156.22;;;20.19;37.56
56719;BME280;42597;40.636;0.278;2023-05-11T08:54:05;97156.94;;;19.86;35.71
56719;BME280;42597;40.636;0.278;2023-05-11T08:56:33;97168.22;;;19.50;36.39
56719;BME280;42597;40.636;0.278;2023-05-11T08:59:03;97157.41;;;19.81;37.13
56719;BME280;42597;40.636;0.278;2023-05-11T09:01:29;97174.88;;;19.49;38.25
56719;BME280;42597;40.636;0.278;2023-05-11T09:03:56;97163.78;;;20.08;36.82
56719;BME280;42597;40.636;0.278;2023-05-11T09:06:23;97212.50;;;18.64;35.26
56719;BME280;42597;40.636;0.278;2023-05-11T09:08:49;97184.56;;;19.64;35.15
56719;BME280;42597;40.636;0.278;2023-05-11T09:11:15;97188.72;;;20.25;37.75
56719;BME280;42597;40.636;0.278;2023-05-11T09:13:41;97170.31;;;19.84;34.27
56719;BME280;42597;40.636;0.278;2023-05-11T09:16:06;97170.50;;;19.59;34.25
56719;BME280;42597;40.636;0.278;2023-05-11T09:18:32;97177.94;;;19.62;34.47
56719;BME280;42597;40.636;0.278;2023-05-11T09:20:59;97184.28;;;19.48;34.36
56719;BME280;42597;40.636;0.278;2023-05-11T09:23:25;97157.00;;;19.82;36.43
56719;BME280;42597;40.636;0.278;2023-05-11T09:25:52;97187.94;;;19.31;34.68
56719;BME280;42597;40.636;0.278;2023-05-11T09:28:22;97166.91;;;20.10;37.49
56719;BME280;42597;40.636;0.278;2023-05-11T09:30:48;97181.19;;;19.94;35.86
56719;BME280;42597;40.636;0.278;2023-05-11T09:33:23;97167.31;;;20.09;35.84
56719;BME280;42597;40.636;0.278;2023-05-11T09:35:49;97176.28;;;20.13;33.41
56719;BME280;42597;40.636;0.278;2023-05-11T09:38:16;97169.66;;;20.10;34.86
56719;BME280;42597;40.636;0.278;2023-05-11T09:40:53;97163.03;;;20.08;33.17
56719;BME280;42597;40.636;0.278;2023-05-11T09:43:27;97148.16;;;20.05;34.83
56719;BME280;42597;40.636;0.278;2023-05-11T09:45:57;97161.78;;;20.50;36.08
56719;BME280;42597;40.636;0.278;2023-05-11T09:48:30;97149.91;;;19.85;33.12
56719;BME280;42597;40.636;0.278;2023-05-11T09:51:03;97156.31;;;19.75;33.45
56719;BME280;42597;40.636;0.278;2023-05-11T09:53:43;97168.63;;;19.93;33.47
56719;BME280;42597;40.636;0.278;2023-05-11T09:56:13;97167.72;;;20.41;36.30
56719;BME280;42597;40.636;0.278;2023-05-11T09:58:50;97185.50;;;19.92;32.96
56719;BME280;42597;40.636;0.278;2023-05-11T10:01:18;97175.28;;;20.34;32.82
56719;BME280;42597;40.636;0.278;2023-05-11T10:06:12;97176.00;;;20.38;33.04
56719;BME280;42597;40.636;0.278;2023-05-11T10:08:38;97167.84;;;20.68;34.24
56719;BME280;42597;40.636;0.278;2023-05-11T10:11:05;97168.44;;;20.15;32.13
56719;BME280;42597;40.636;0.278;2023-05-11T10:13:32;97171.50;;;20.20;31.64
56719;BME280;42597;40.636;0.278;2023-05-11T10:16:01;97168.34;;;20.22;33.88
56719;BME280;42597;40.636;0.278;2023-05-11T10:18:29;97197.28;;;20.99;35.65
56719;BME280;42597;40.636;0.278;2023-05-11T10:20:56;97161.28;;;20.89;36.50
56719;BME280;42597;40.636;0.278;2023-05-11T10:23:24;97180.56;;;20.55;32.69
56719;BME280;42597;40.636;0.278;2023-05-11T10:25:51;97180.66;;;20.44;33.99
56719;BME280;42597;40.636;0.278;2023-05-11T10:28:18;97175.13;;;20.48;34.33
56719;BME280;42597;40.636;0.278;2023-05-11T10:30:45;97188.34;;;20.60;32.69
56719;BME280;42597;40.636;0.278;2023-05-11T10:33:12;97171.31;;;20.73;34.91
56719;BME280;42597;40.636;0.278;2023-05-11T10:35:38;97183.03;;;20.42;33.25
56719;BME280;42597;40.636;0.278;2023-05-11T10:38:05;97174.88;;;20.69;34.83
56719;BME280;42597;40.636;0.278;2023-05-11T10:40:37;97168.19;;;21.01;35.68
56719;BME280;42597;40.636;0.278;2023-05-11T10:43:48;97174.28;;;20.55;32.45
56719;BME280;42597;40.636;0.278;2023-05-11T10:57:12;97171.31;;;21.03;35.10
56719;BME280;42597;40.636;0.278;2023-05-11T11:00:34;97169.22;;;20.84;33.50
56719;BME280;42597;40.636;0.278;2023-05-11T11:03:07;97178.09;;;20.64;32.49
56719;BME280;42597;40.636;0.278;2023-05-11T11:05:34;97194.41;;;20.79;32.82
56719;BME280;42597;40.636;0.278;2023-05-11T11:08:02;97170.66;;;20.92;35.57
56719;BME280;42597;40.636;0.278;2023-05-11T11:20:55;97175.47;;;20.84;33.99
56719;BME280;42597;40.636;0.278;2023-05-11T11:23:40;97179.78;;;20.85;33.84
56719;BME280;42597;40.636;0.278;2023-05-11T11:26:07;97184.88;;;20.87;30.93
56719;BME280;42597;40.636;0.278;2023-05-11T11:33:52;97160.81;;;21.22;33.71
56719;BME280;42597;40.636;0.278;2023-05-11T11:39:44;97160.91;;;21.14;32.63
56719;BME280;42597;40.636;0.278;2023-05-11T11:44:37;97177.25;;;20.98;30.48
56719;BME280;42597;40.636;0.278;2023-05-11T11:47:18;97158.09;;;20.94;30.45
56719;BME280;42597;40.636;0.278;2023-05-11T11:49:52;97164.34;;;21.22;33.46
56719;BME280;42597;40.636;0.278;2023-05-11T11:54:54;97163.59;;;21.49;33.12
56719;BME280;42597;40.636;0.278;2023-05-11T12:00:07;97163.03;;;21.34;33.54
56719;BME280;42597;40.636;0.278;2023-05-11T12:02:41;97161.19;;;21.24;30.43
56719;BME280;42597;40.636;0.278;2023-05-11T12:07:42;97158.13;;;21.45;30.02
56719;BME280;42597;40.636;0.278;2023-05-11T12:10:08;97164.59;;;21.35;28.58
56719;BME280;42597;40.636;0.278;2023-05-11T12:12:37;97176.75;;;21.34;30.23
56719;BME280;42597;40.636;0.278;2023-05-11T12:15:03;97162.19;;;21.37;30.07
56719;BME280;42597;40.636;0.278;2023-05-11T12:17:31;97169.06;;;21.22;29.80
56719;BME280;42597;40.636;0.278;2023-05-11T12:20:15;97160.53;;;21.43;31.16
56719;BME280;42597;40.636;0.278;2023-05-11T12:22:42;97153.31;;;21.26;28.78
56719;BME280;42597;40.636;0.278;2023-05-11T12:25:09;97162.56;;;21.39;30.99
56719;BME280;42597;40.636;0.278;2023-05-11T12:30:27;97154.78;;;21.57;30.53
56719;BME280;42597;40.636;0.278;2023-05-11T12:32:53;97163.13;;;21.27;29.83
56719;BME280;42597;40.636;0.278;2023-05-11T12:35:26;97153.31;;;21.53;31.71
56719;BME280;42597;40.636;0.278;2023-05-11T12:37:52;97158.25;;;21.61;30.16
56719;BME280;42597;40.636;0.278;2023-05-11T12:40:18;97149.97;;;21.65;32.05
56719;BME280;42597;40.636;0.278;2023-05-11T12:42:59;97153.13;;;21.40;29.12
56719;BME280;42597;40.636;0.278;2023-05-11T12:45:26;97144.34;;;21.72;31.77
56719;BME280;42597;40.636;0.278;2023-05-11T12:47:53;97140.28;;;21.80;29.38
56719;BME280;42597;40.636;0.278;2023-05-11T12:50:20;97136.09;;;21.49;30.02
56719;BME280;42597;40.636;0.278;2023-05-11T12:52:46;97135.97;;;21.56;30.08
56719;BME280;42597;40.636;0.278;2023-05-11T12:55:26;97133.47;;;21.65;30.51
56719;BME280;42597;40.636;0.278;2023-05-11T12:57:52;97123.47;;;21.75;28.64
56719;BME280;42597;40.636;0.278;2023-05-11T13:00:30;97125.75;;;21.56;27.85
56719;BME280;42597;40.636;0.278;2023-05-11T13:02:56;97122.88;;;21.63;27.64
56719;BME280;42597;40.636;0.278;2023-05-11T13:05:26;97110.28;;;21.86;28.63
56719;BME280;42597;40.636;0.278;2023-05-11T13:08:04;97115.53;;;22.00;33.83
56719;BME280;42597;40.636;0.278;2023-05-11T13:10:30;97115.69;;;21.69;29.58
56719;BME280;42597;40.636;0.278;2023-05-11T13:12:56;97106.13;;;21.78;30.23
56719;BME280;42597;40.636;0.278;2023-05-11T13:15:23;97115.41;;;21.64;31.16
56719;BME280;42597;40.636;0.278;2023-05-11T13:17:57;97106.41;;;21.40;29.66
56719;BME280;42597;40.636;0.278;2023-05-11T13:20:27;97101.56;;;21.48;30.94
56719;BME280;42597;40.636;0.278;2023-05-11T13:23:08;97093.94;;;21.32;27.62
56719;BME280;42597;40.636;0.278;2023-05-11T13:26:00;97087.09;;;21.67;30.75
56719;BME280;42597;40.636;0.278;2023-05-11T13:28:26;97103.75;;;21.56;28.91
56719;BME280;42597;40.636;0.278;2023-05-11T13:31:00;97089.22;;;21.79;30.49
56719;BME280;42597;40.636;0.278;2023-05-11T13:33:26;97086.66;;;21.68;28.20
56719;BME280;42597;40.636;0.278;2023-05-11T13:35:52;97078.31;;;21.52;29.04
56719;BME280;42597;40.636;0.278;2023-05-11T13:38:17;97083.50;;;21.90;31.53
56719;BME280;42597;40.636;0.278;2023-05-11T13:40:43;97080.97;;;21.99;31.36
56719;BME280;42597;40.636;0.278;2023-05-11T13:43:08;97086.38;;;21.63;27.57
56719;BME280;42597;40.636;0.278;2023-05-11T13:45:34;97081.75;;;21.56;30.13
56719;BME280;42597;40.636;0.278;2023-05-11T13:48:00;97072.72;;;21.79;29.64
56719;BME280;42597;40.636;0.278;2023-05-11T13:50:26;97086.56;;;21.52;29.35
56719;BME280;42597;40.636;0.278;2023-05-11T13:52:52;97073.94;;;21.75;26.80
56719;BME280;42597;40.636;0.278;2023-05-11T13:55:18;97082.31;;;21.91;32.10
56719;BME280;42597;40.636;0.278;2023-05-11T13:57:44;97080.22;;;21.55;27.09
56719;BME280;42597;40.636;0.278;2023-05-11T14:00:10;97054.84;;;21.67;32.47
56719;BME280;42597;40.636;0.278;2023-05-11T14:02:36;97078.00;;;21.90;30.42
56719;BME280;42597;40.636;0.278;2023-05-11T14:05:01;97058.44;;;21.64;26.28